Terminal Aerodrome Forecast
Issued by NWS

Home | Current Version | Previous Version | Text Only | Print | Product List | Glossary On
Versions: 1 2 3 4 5 6 7 8 9 10 11 12 13
000
FTAK31 PANC 232327
TAFAIL
TAF
PAIL 232327Z 2400/2424 12011G20KT P6SM -SHRA BKN035 OVC050
      TEMPO 2400/2404 BKN025
     FM240600 10022G30KT P6SM -RA BKN035 OVC050
     FM241200 10032G44KT P6SM -RA SCT015 BKN035 OVC050
     FM241800 11031G38KT 4SM -RA BR OVC025
     FM242100 15015G22KT 4SM -RA BR OVC012=

USA.gov is the U.S. government's official web portal to all federal, state and local government web resources and services.